Time;durP1;ratioP1;P1;durP2;ratioP2;P2;SDS_P1;SDS_P2;PMS_P1;PMS_P2;Temp;Humidity;BMP_temperature;BMP_pressure;BME280_temperature;BME280_humidity;BME280_pressure;Samples;Min_cycle;Max_cycle;Signal;HPM_P1;HPM_P2
2022/03/23 00:08:35;;;;;;;1.90;1.60;;;23.00;53.20;;;;;;4973871;28;20448;-90
2022/03/23 00:12:01;;;;;;;1.70;1.40;;;22.90;53.20;;;;;;4987319;28;20469;-89
2022/03/23 00:18:31;;;;;;;1.70;1.53;;;22.90;53.20;;;;;;4989685;28;20406;-89
2022/03/23 00:24:42;;;;;;;;;;;;;;;;;;;;;
2022/03/23 00:31:11;;;;;;;2.20;2.00;;;22.90;53.20;;;;;;4887443;29;20501;-91
2022/03/23 00:40:59;;;;;;;;;;;;;;;;;;;;;
2022/03/23 00:51:36;;;;;;;;;;;;;;;;;;;;;
2022/03/23 00:54:06;;;;;;;;;;;;;;;;;;;;;
2022/03/23 01:00:51;;;;;;;;;;;;;;;;;;;;;
2022/03/23 01:04:08;;;;;;;;;;;;;;;;;;;;;
2022/03/23 01:06:42;;;;;;;2.47;1.97;;;22.80;53.10;;;;;;4960570;28;20436;-90
2022/03/23 01:09:09;;;;;;;1.80;1.70;;;22.80;53.10;;;;;;4974074;28;20445;-90
2022/03/23 01:11:37;;;;;;;2.00;1.70;;;22.80;53.10;;;;;;4974284;28;20465;-90
2022/03/23 01:14:04;;;;;;;2.10;1.63;;;22.80;53.10;;;;;;4973900;28;20420;-90
2022/03/23 01:16:30;;;;;;;2.00;1.87;;;22.80;53.10;;;;;;4973271;28;20420;-90
2022/03/23 01:22:16;;;;;;;;;;;;;;;;;;;;;
2022/03/23 01:25:07;;;;;;;1.60;1.50;;;22.80;53.00;;;;;;4990137;28;20445;-90
2022/03/23 01:28:13;;;;;;;;;;;;;;;;;;;;;
2022/03/23 01:31:58;;;;;;;1.73;1.63;;;22.80;53.00;;;;;;4988893;28;20428;-90
2022/03/23 01:39:00;;;;;;;;;;;;;;;;;;;;;
2022/03/23 01:42:11;;;;;;;;;;;;;;;;;;;;;
2022/03/23 01:45:10;;;;;;;1.60;1.40;;;22.70;53.10;;;;;;4910039;29;20467;-89
2022/03/23 01:51:48;;;;;;;;;;;;;;;;;;;;;
2022/03/23 02:11:21;;;;;;;1.80;1.70;;;22.70;53.00;;;;;;4901663;29;20566;-89
2022/03/23 02:13:53;;;;;;;1.60;1.50;;;22.70;53.00;;;;;;4941881;28;20400;-89
2022/03/23 02:16:56;;;;;;;1.87;1.67;;;22.70;52.90;;;;;;4974289;28;20417;-89
2022/03/23 02:22:49;;;;;;;2.30;1.70;;;22.70;52.90;;;;;;4974212;28;20486;-89
2022/03/23 02:26:00;;;;;;;;;;;;;;;;;;;;;
2022/03/23 02:29:05;;;;;;;1.97;1.77;;;22.70;52.90;;;;;;4986566;28;20441;-89
2022/03/23 02:32:07;;;;;;;;;;;;;;;;;;;;;
2022/03/23 02:34:33;;;;;;;1.70;1.50;;;22.70;52.90;;;;;;4988156;28;20447;-89
2022/03/23 02:40:57;;;;;;;;;;;;;;;;;;;;;
2022/03/23 02:47:37;;;;;;;;;;;;;;;;;;;;;
2022/03/23 02:49:57;;;;;;;2.43;1.57;;;22.70;53.10;;;;;;4973960;28;20436;-89
2022/03/23 02:52:22;;;;;;;2.00;1.63;;;22.70;53.10;;;;;;4990918;28;20962;-89
2022/03/23 03:04:01;;;;;;;2.07;1.70;;;22.70;53.00;;;;;;4989875;28;20381;-89
2022/03/23 03:06:27;;;;;;;1.70;1.60;;;22.70;53.00;;;;;;4973371;28;20413;-89
2022/03/23 03:12:17;;;;;;;2.13;1.30;;;22.70;53.00;;;;;;4990745;28;20220;-89
2022/03/23 03:14:42;;;;;;;2.00;1.80;;;22.60;53.00;;;;;;4972840;28;20444;-89
2022/03/23 03:17:08;;;;;;;1.70;1.60;;;22.70;53.00;;;;;;4991908;28;20409;-90
2022/03/23 03:19:37;;;;;;;1.80;1.60;;;22.60;52.90;;;;;;4973762;28;20173;-89
2022/03/23 03:22:05;;;;;;;2.17;2.00;;;22.70;52.90;;;;;;4990633;28;20188;-89
2022/03/23 03:24:40;;;;;;;1.60;1.50;;;22.70;52.90;;;;;;4990334;28;20484;-89
2022/03/23 03:27:05;;;;;;;1.97;1.77;;;22.70;52.90;;;;;;4973172;28;20531;-89
2022/03/23 03:29:31;;;;;;;2.10;1.90;;;22.70;52.90;;;;;;4973500;28;20417;-89
2022/03/23 03:32:04;;;;;;;2.10;1.70;;;22.70;52.80;;;;;;4972642;28;20233;-90
2022/03/23 03:34:30;;;;;;;2.07;1.83;;;22.70;52.80;;;;;;4990008;28;20238;-89
2022/03/23 03:36:56;;;;;;;1.73;1.63;;;22.70;52.90;;;;;;4989765;28;20414;-89
2022/03/23 03:39:21;;;;;;;2.50;1.83;;;22.70;52.90;;;;;;4989882;28;20181;-89
2022/03/23 03:41:47;;;;;;;1.43;1.30;;;22.70;52.90;;;;;;4973264;28;20236;-89
2022/03/23 03:44:14;;;;;;;1.70;1.60;;;22.70;52.90;;;;;;4972510;28;20178;-89
2022/03/23 03:46:40;;;;;;;1.40;1.30;;;22.70;52.90;;;;;;4988884;28;20186;-89
2022/03/23 03:49:06;;;;;;;1.77;1.40;;;22.70;52.90;;;;;;4972389;28;20417;-89
2022/03/23 03:51:34;;;;;;;2.10;1.57;;;22.70;52.90;;;;;;4971497;28;20465;-89
2022/03/23 03:54:00;;;;;;;1.77;1.60;;;22.70;52.90;;;;;;4989754;28;20436;-89
2022/03/23 03:56:26;;;;;;;1.90;1.70;;;22.70;52.90;;;;;;4988886;28;20429;-89
2022/03/23 03:58:53;;;;;;;2.13;1.67;;;22.70;52.90;;;;;;4972407;28;20182;-89
2022/03/23 04:01:18;;;;;;;1.60;1.50;;;22.70;52.90;;;;;;4972375;28;20192;-89
2022/03/23 04:03:44;;;;;;;2.23;1.70;;;22.70;52.80;;;;;;4972966;28;20424;-89
2022/03/23 04:09:32;;;;;;;2.30;1.70;;;22.70;52.80;;;;;;4989109;28;20241;-89
2022/03/23 04:15:21;;;;;;;2.37;2.00;;;22.70;52.80;;;;;;4989518;28;20216;-89
2022/03/23 04:17:47;;;;;;;1.90;1.70;;;22.60;52.70;;;;;;4984752;28;20449;-89
2022/03/23 04:20:13;;;;;;;1.80;1.70;;;22.70;52.80;;;;;;4969498;29;20481;-89
2022/03/23 04:22:39;;;;;;;2.10;1.90;;;22.60;52.70;;;;;;4970006;28;20478;-89
2022/03/23 04:25:12;;;;;;;1.70;1.60;;;22.60;52.70;;;;;;4969420;29;20777;-89
2022/03/23 04:27:49;;;;;;;2.13;1.77;;;22.60;52.70;;;;;;4969655;29;20414;-89
2022/03/23 04:30:17;;;;;;;2.33;1.97;;;22.60;52.70;;;;;;4970331;28;20409;-89
2022/03/23 04:32:45;;;;;;;2.07;1.87;;;22.60;52.70;;;;;;4971466;28;20464;-89
2022/03/23 04:35:12;;;;;;;2.27;2.00;;;22.60;52.70;;;;;;4972524;28;20432;-89
2022/03/23 04:37:38;;;;;;;2.37;2.17;;;22.60;52.70;;;;;;4971590;28;20467;-89
2022/03/23 04:40:05;;;;;;;1.97;1.77;;;22.60;52.70;;;;;;4988249;28;20465;-89
2022/03/23 04:42:31;;;;;;;2.20;2.00;;;22.60;52.70;;;;;;4971623;28;20492;-89
2022/03/23 04:44:58;;;;;;;2.30;2.10;;;22.60;52.70;;;;;;4987639;28;20429;-89
2022/03/23 04:47:24;;;;;;;2.07;1.87;;;22.60;52.70;;;;;;4972246;28;20428;-89
2022/03/23 04:49:50;;;;;;;2.40;2.17;;;22.60;52.70;;;;;;4988753;28;20405;-89
2022/03/23 04:52:27;;;;;;;2.00;1.80;;;22.60;52.70;;;;;;4971957;28;20201;-89
2022/03/23 04:54:56;;;;;;;2.20;2.00;;;22.60;52.70;;;;;;4971753;28;20178;-89
2022/03/23 04:57:26;;;;;;;2.40;2.07;;;22.60;52.60;;;;;;4971614;28;20448;-89
2022/03/23 04:59:52;;;;;;;2.07;1.87;;;22.60;53.20;;;;;;4971808;28;20425;-89
2022/03/23 05:02:18;;;;;;;2.60;2.40;;;22.60;52.70;;;;;;4987852;28;21002;-89
2022/03/23 05:04:44;;;;;;;2.60;2.27;;;22.60;52.70;;;;;;4971319;28;20435;-89
2022/03/23 05:07:10;;;;;;;1.80;1.70;;;22.60;52.70;;;;;;4988558;28;20424;-89
2022/03/23 05:09:36;;;;;;;2.33;2.00;;;22.60;52.60;;;;;;4971344;28;20448;-89
2022/03/23 05:12:02;;;;;;;2.30;2.10;;;22.60;52.60;;;;;;4970522;28;20209;-89
2022/03/23 05:15:09;;;;;;;1.87;1.67;;;22.50;52.50;;;;;;4988172;28;20177;-90
2022/03/23 05:17:38;;;;;;;2.13;1.93;;;22.60;52.60;;;;;;4970498;28;20460;-90
2022/03/23 05:20:05;;;;;;;3.10;2.70;;;22.50;52.60;;;;;;4988078;28;20417;-90
2022/03/23 05:22:32;;;;;;;3.00;2.33;;;22.50;52.60;;;;;;4988145;28;20424;-90
2022/03/23 05:25:07;;;;;;;2.50;2.30;;;22.50;52.60;;;;;;4970667;28;20471;-88
2022/03/23 05:27:38;;;;;;;2.50;2.10;;;22.50;52.60;;;;;;4975415;28;20412;-89
2022/03/23 05:30:07;;;;;;;2.40;2.20;;;22.50;52.60;;;;;;4977218;28;20409;-89
2022/03/23 05:32:39;;;;;;;2.60;2.07;;;22.50;52.60;;;;;;4977820;28;20469;-89
2022/03/23 05:35:05;;;;;;;2.33;2.13;;;22.50;52.60;;;;;;4994815;28;20443;-89
2022/03/23 05:37:31;;;;;;;2.67;2.47;;;22.50;52.60;;;;;;4977150;28;20428;-89
2022/03/23 05:39:57;;;;;;;2.23;1.80;;;22.50;52.60;;;;;;4975457;28;20424;-91
2022/03/23 05:42:23;;;;;;;2.10;1.83;;;22.50;52.60;;;;;;4975486;28;20597;-90
2022/03/23 05:44:48;;;;;;;3.50;2.13;;;22.50;52.70;;;;;;4992822;28;20173;-91
2022/03/23 05:47:14;;;;;;;2.33;2.13;;;22.50;52.70;;;;;;4993051;28;20212;-91
2022/03/23 05:49:40;;;;;;;2.30;2.10;;;22.50;52.70;;;;;;4975121;28;20189;-90
2022/03/23 05:52:06;;;;;;;1.90;1.80;;;22.50;52.70;;;;;;4974960;28;20211;-90
2022/03/23 05:54:32;;;;;;;1.87;1.67;;;22.50;52.70;;;;;;4992329;28;20173;-90
2022/03/23 05:57:02;;;;;;;2.47;1.87;;;22.50;52.80;;;;;;4975288;28;20632;-90
2022/03/23 05:59:43;;;;;;;2.53;2.33;;;22.50;52.80;;;;;;4971309;29;20417;-91
2022/03/23 06:05:31;;;;;;;2.33;2.13;;;22.50;52.80;;;;;;4970604;28;20183;-91
2022/03/23 06:11:18;;;;;;;2.40;2.20;;;22.50;52.80;;;;;;4971631;28;20460;-90
2022/03/23 06:13:49;;;;;;;2.47;2.20;;;22.50;52.80;;;;;;4971370;28;20512;-90
2022/03/23 06:16:19;;;;;;;4.80;2.60;;;22.50;52.90;;;;;;4956282;29;20186;-90
2022/03/23 06:18:46;;;;;;;2.60;2.20;;;22.50;52.80;;;;;;4955657;29;20426;-91
2022/03/23 06:21:13;;;;;;;2.60;2.40;;;22.50;52.80;;;;;;4955626;29;20453;-91
2022/03/23 06:23:41;;;;;;;2.93;2.20;;;22.50;52.80;;;;;;4948266;29;20438;-91
2022/03/23 06:26:10;;;;;;;2.60;2.40;;;22.50;52.80;;;;;;4953470;29;20518;-91
2022/03/23 06:28:36;;;;;;;2.10;1.90;;;22.50;52.80;;;;;;4952850;29;21037;-91
2022/03/23 06:34:25;;;;;;;2.50;2.30;;;22.60;52.80;;;;;;4973297;29;20160;-91
2022/03/23 06:36:56;;;;;;;3.03;2.23;;;22.60;52.80;;;;;;4972267;29;20952;-91
2022/03/23 06:39:23;;;;;;;2.30;2.10;;;22.60;52.80;;;;;;4953441;29;20493;-89
2022/03/23 06:41:53;;;;;;;2.93;2.50;;;22.60;52.80;;;;;;4953384;29;20429;-90
2022/03/23 06:44:22;;;;;;;5.40;2.63;;;22.60;52.80;;;;;;4968752;29;20911;-90
2022/03/23 06:46:48;;;;;;;3.47;2.50;;;22.60;52.80;;;;;;4970947;29;20892;-91
2022/03/23 06:49:14;;;;;;;2.70;2.40;;;22.60;52.80;;;;;;4970606;29;20421;-91
2022/03/23 06:51:41;;;;;;;2.53;2.13;;;22.60;52.80;;;;;;4970894;29;20208;-89
2022/03/23 06:54:06;;;;;;;3.10;2.80;;;22.60;52.80;;;;;;4953934;29;20206;-90
2022/03/23 06:56:32;;;;;;;3.07;2.50;;;22.60;52.80;;;;;;4954076;29;20433;-89
2022/03/23 06:58:58;;;;;;;3.03;2.23;;;22.60;52.70;;;;;;4953261;29;20182;-91
2022/03/23 07:01:24;;;;;;;3.70;2.67;;;22.60;52.70;;;;;;4953593;29;20217;-90
2022/03/23 07:03:50;;;;;;;3.33;2.83;;;22.60;52.70;;;;;;4953526;29;20430;-91
2022/03/23 07:06:16;;;;;;;2.63;2.37;;;22.60;52.70;;;;;;4952976;29;20434;-91
2022/03/23 07:11:30;;;;;;;3.53;2.40;;;22.60;52.70;;;;;;4970716;29;20550;-91
2022/03/23 07:13:57;;;;;;;2.90;2.60;;;22.70;52.80;;;;;;4970588;29;20852;-91
2022/03/23 07:16:23;;;;;;;2.43;2.23;;;22.70;52.80;;;;;;4970002;29;20418;-90
2022/03/23 07:18:49;;;;;;;2.87;2.60;;;22.70;52.80;;;;;;4952580;29;20440;-91
2022/03/23 07:21:15;;;;;;;4.30;2.93;;;22.70;52.80;;;;;;4953126;29;20185;-91
2022/03/23 07:23:40;;;;;;;2.60;2.40;;;22.70;52.80;;;;;;4952924;29;20422;-91
2022/03/23 07:26:06;;;;;;;2.13;2.00;;;22.70;52.80;;;;;;4970185;29;20206;-91
2022/03/23 07:28:32;;;;;;;2.83;2.63;;;22.70;52.80;;;;;;4968806;28;20190;-90
2022/03/23 07:30:59;;;;;;;2.73;2.30;;;22.70;52.80;;;;;;4989287;28;20189;-90
2022/03/23 07:33:25;;;;;;;2.53;2.33;;;22.70;52.80;;;;;;4988896;28;20911;-89
2022/03/23 07:35:51;;;;;;;3.00;2.70;;;22.70;52.80;;;;;;4971969;28;20421;-91
2022/03/23 07:38:20;;;;;;;3.40;2.80;;;22.70;52.80;;;;;;4988503;28;20174;-90
2022/03/23 07:40:46;;;;;;;2.93;2.63;;;22.70;52.80;;;;;;4989018;28;20429;-91
2022/03/23 07:43:12;;;;;;;2.80;2.50;;;22.70;52.80;;;;;;4971757;28;20436;-91
2022/03/23 07:45:38;;;;;;;3.37;2.70;;;22.70;52.80;;;;;;4971252;28;20244;-91
2022/03/23 07:48:04;;;;;;;3.20;2.90;;;22.70;52.80;;;;;;4988575;28;20177;-91
2022/03/23 07:50:31;;;;;;;4.03;2.30;;;22.70;52.80;;;;;;4988077;28;20795;-91
2022/03/23 07:53:07;;;;;;;2.53;2.33;;;22.70;52.80;;;;;;4969059;28;20484;-91
2022/03/23 07:55:33;;;;;;;3.80;3.20;;;22.70;52.80;;;;;;4970409;28;20177;-91
2022/03/23 07:57:59;;;;;;;2.20;2.00;;;22.70;52.80;;;;;;4970091;28;20414;-91
2022/03/23 08:00:34;;;;;;;2.97;2.60;;;22.80;52.80;;;;;;4986693;28;20432;-92
2022/03/23 08:03:00;;;;;;;3.00;2.57;;;22.80;52.80;;;;;;4987496;28;20182;-91
2022/03/23 08:05:26;;;;;;;3.37;2.87;;;22.70;52.80;;;;;;4974610;28;20457;-91
2022/03/23 08:07:52;;;;;;;2.60;2.30;;;22.80;52.80;;;;;;4969999;28;20178;-91
2022/03/23 08:10:45;;;;;;;2.80;2.40;;;22.80;52.80;;;;;;4970570;28;20428;-91
2022/03/23 08:13:12;;;;;;;3.50;2.90;;;22.80;52.80;;;;;;4970206;28;20205;-91
2022/03/23 08:15:39;;;;;;;2.40;2.17;;;22.80;52.80;;;;;;4970403;28;20424;-91
2022/03/23 08:18:06;;;;;;;4.40;2.80;;;22.80;52.80;;;;;;4968859;28;20437;-91
2022/03/23 08:20:32;;;;;;;2.30;2.10;;;22.80;52.80;;;;;;4987432;28;20425;-90
2022/03/23 08:23:00;;;;;;;2.80;2.30;;;22.80;52.90;;;;;;4987417;28;20429;-90
2022/03/23 08:25:27;;;;;;;2.10;1.90;;;22.80;52.80;;;;;;4969985;28;20840;-90
2022/03/23 08:27:55;;;;;;;2.30;2.10;;;22.80;52.80;;;;;;4969355;28;20417;-90
2022/03/23 08:30:21;;;;;;;3.10;2.40;;;22.70;52.80;;;;;;4970652;28;20440;-90
2022/03/23 08:32:46;;;;;;;2.50;2.20;;;22.80;52.90;;;;;;4969402;28;20460;-90
2022/03/23 08:35:12;;;;;;;2.83;2.57;;;22.70;52.80;;;;;;4986043;28;20433;-91
2022/03/23 08:37:40;;;;;;;3.13;2.40;;;22.80;52.90;;;;;;4992536;28;20173;-90
2022/03/23 08:40:07;;;;;;;2.60;2.37;;;22.80;52.90;;;;;;4967985;28;20178;-91
2022/03/23 08:45:55;;;;;;;2.80;2.30;;;22.80;52.90;;;;;;4983922;28;20451;-89
2022/03/23 08:48:21;;;;;;;3.00;2.70;;;22.80;52.90;;;;;;4985503;28;20994;-89
2022/03/23 08:50:48;;;;;;;2.67;2.47;;;22.70;52.90;;;;;;4967289;28;20954;-90
2022/03/23 08:53:14;;;;;;;2.40;2.20;;;22.80;52.90;;;;;;4985334;28;21064;-90
2022/03/23 08:55:40;;;;;;;3.33;3.03;;;22.70;52.90;;;;;;4967705;28;20425;-91
2022/03/23 08:58:07;;;;;;;2.70;2.50;;;22.80;52.90;;;;;;4984894;28;20425;-91
2022/03/23 09:00:33;;;;;;;3.27;2.97;;;22.80;52.90;;;;;;4967771;28;20421;-91
2022/03/23 09:03:00;;;;;;;3.10;2.77;;;22.70;52.90;;;;;;4983601;28;20453;-91
2022/03/23 09:05:26;;;;;;;2.73;2.50;;;22.80;52.90;;;;;;4968843;28;20421;-91
2022/03/23 09:11:14;;;;;;;3.03;2.77;;;22.80;52.90;;;;;;4982819;28;20203;-91
2022/03/23 09:13:42;;;;;;;2.67;2.47;;;22.80;53.00;;;;;;4984865;28;20432;-91
2022/03/23 09:16:09;;;;;;;3.30;2.80;;;22.80;53.00;;;;;;4985123;28;20475;-90
2022/03/23 09:18:34;;;;;;;2.50;2.30;;;22.80;53.00;;;;;;4985617;28;20468;-90
2022/03/23 09:21:01;;;;;;;2.17;1.97;;;22.70;52.90;;;;;;4985273;28;20436;-91
2022/03/23 09:26:48;;;;;;;3.47;2.83;;;22.80;52.90;;;;;;4981899;28;20440;-91
2022/03/23 09:29:14;;;;;;;2.53;2.20;;;22.80;53.00;;;;;;4982210;28;20416;-90
2022/03/23 09:31:40;;;;;;;3.20;2.57;;;22.80;53.00;;;;;;4966336;28;20220;-90
2022/03/23 09:34:06;;;;;;;2.67;2.47;;;22.80;53.00;;;;;;4964971;28;20418;-91
2022/03/23 09:39:18;;;;;;;2.43;2.07;;;22.80;53.00;;;;;;4983198;28;20192;-91
2022/03/23 09:41:45;;;;;;;3.53;3.00;;;22.70;52.90;;;;;;4965236;28;20417;-90
2022/03/23 09:44:14;;;;;;;2.57;2.20;;;22.70;52.90;;;;;;4968555;28;20498;-91
2022/03/23 09:46:40;;;;;;;3.53;2.47;;;22.80;53.00;;;;;;4968478;28;20429;-90
2022/03/23 09:49:08;;;;;;;2.60;2.40;;;22.80;53.00;;;;;;4960946;28;20414;-90
2022/03/23 09:51:37;;;;;;;2.70;2.50;;;22.80;53.00;;;;;;4963197;28;20719;-90
2022/03/23 09:54:04;;;;;;;2.53;2.33;;;22.80;53.00;;;;;;4977709;28;20406;-90
2022/03/23 09:56:30;;;;;;;3.17;2.70;;;22.80;53.00;;;;;;4963572;28;20421;-91
2022/03/23 09:59:04;;;;;;;2.33;2.13;;;22.80;53.00;;;;;;4960701;28;20468;-91
2022/03/23 10:01:30;;;;;;;2.43;2.20;;;22.80;53.00;;;;;;4961832;28;20421;-91
2022/03/23 10:04:18;;;;;;;2.30;2.10;;;22.80;53.00;;;;;;4981376;28;20492;-91
2022/03/23 10:07:21;;;;;;;2.90;2.50;;;22.80;53.00;;;;;;4962499;28;20452;-91
2022/03/23 10:10:24;;;;;;;2.90;2.33;;;22.80;53.00;;;;;;4979987;28;20431;-91
2022/03/23 10:13:27;;;;;;;2.30;2.10;;;22.80;53.00;;;;;;4979849;28;20464;-91
2022/03/23 10:19:15;;;;;;;3.10;2.60;;;22.70;53.00;;;;;;4980979;28;20432;-91
2022/03/23 10:21:41;;;;;;;3.00;2.70;;;22.70;53.10;;;;;;4968825;28;20421;-90
2022/03/23 10:24:07;;;;;;;2.53;2.03;;;22.70;53.10;;;;;;4971992;28;20174;-90
2022/03/23 10:26:36;;;;;;;2.20;2.00;;;22.70;53.00;;;;;;4971482;28;20455;-91
2022/03/23 10:29:03;;;;;;;2.83;2.50;;;22.70;53.00;;;;;;4978082;28;20197;-90
2022/03/23 10:31:32;;;;;;;2.80;2.27;;;22.70;53.00;;;;;;4970254;28;20905;-91
2022/03/23 10:34:08;;;;;;;2.30;2.10;;;22.70;53.00;;;;;;4969896;28;20429;-89
2022/03/23 10:36:57;;;;;;;2.50;2.30;;;22.70;53.00;;;;;;4985875;28;20423;-89
2022/03/23 10:39:31;;;;;;;3.07;2.33;;;22.80;53.10;;;;;;4972870;28;20918;-92
2022/03/23 10:41:59;;;;;;;3.17;2.80;;;22.70;53.00;;;;;;4969284;28;20440;-91
2022/03/23 10:44:26;;;;;;;3.40;3.10;;;22.70;52.90;;;;;;4988344;28;20424;-91
2022/03/23 10:47:03;;;;;;;4.73;4.00;;;22.70;52.80;;;;;;4970510;28;20429;-92
2022/03/23 10:49:36;;;;;;;4.77;4.33;;;22.70;52.60;;;;;;4982790;28;22854;-91
2022/03/23 10:52:16;;;;;;;5.30;3.83;;;22.70;52.50;;;;;;4988747;28;20452;-90
2022/03/23 10:55:01;;;;;;;4.47;3.87;;;22.70;52.40;;;;;;4985863;28;20397;-91
2022/03/23 10:57:59;;;;;;;3.10;2.80;;;22.70;52.40;;;;;;4988916;28;20421;-90
2022/03/23 11:00:32;;;;;;;3.70;3.30;;;22.70;52.40;;;;;;4987345;28;20420;-89
2022/03/23 11:03:00;;;;;;;3.40;3.10;;;22.70;52.40;;;;;;4971684;28;20425;-90
2022/03/23 11:05:32;;;;;;;3.87;3.23;;;22.70;52.40;;;;;;4988222;28;20458;-90
2022/03/23 11:08:22;;;;;;;4.90;3.33;;;22.70;52.40;;;;;;4986305;28;20425;-90
2022/03/23 11:16:29;;;;;;;3.53;2.97;;;22.60;52.40;;;;;;4989231;28;20417;-91
2022/03/23 11:19:23;;;;;;;2.77;2.50;;;22.60;52.40;;;;;;4971713;28;20473;-91
2022/03/23 11:22:02;;;;;;;3.50;3.20;;;22.60;52.40;;;;;;4986075;28;20440;-91
2022/03/23 11:24:49;;;;;;;3.60;3.30;;;22.60;52.40;;;;;;4971371;28;20421;-91
2022/03/23 11:27:19;;;;;;;3.50;2.80;;;22.60;52.40;;;;;;4989116;28;20398;-91
2022/03/23 11:29:47;;;;;;;3.37;2.80;;;22.60;53.00;;;;;;4971044;28;20452;-91
2022/03/23 11:32:24;;;;;;;5.20;2.53;;;22.60;52.40;;;;;;4971468;28;20460;-91
2022/03/23 11:34:51;;;;;;;3.33;2.83;;;22.60;52.40;;;;;;4988411;28;20412;-90
2022/03/23 11:37:21;;;;;;;4.33;3.40;;;22.60;52.40;;;;;;4971410;28;20414;-91
2022/03/23 11:39:50;;;;;;;3.73;3.10;;;22.60;52.40;;;;;;4971979;28;20931;-91
2022/03/23 11:42:17;;;;;;;3.30;2.70;;;22.60;52.30;;;;;;4988861;28;20477;-92
2022/03/23 11:44:46;;;;;;;3.53;2.80;;;22.60;52.30;;;;;;4971239;28;20430;-91
2022/03/23 11:47:56;;;;;;;4.10;2.73;;;22.60;52.30;;;;;;4971096;28;20770;-91
2022/03/23 11:51:05;;;;;;;3.17;2.87;;;22.60;52.20;;;;;;4890763;29;20421;-91
2022/03/23 11:53:50;;;;;;;3.73;3.37;;;22.60;52.30;;;;;;4891072;29;20437;-91
2022/03/23 11:56:25;;;;;;;3.20;2.90;;;22.60;52.30;;;;;;4946676;29;20446;-92
2022/03/23 11:58:52;;;;;;;2.90;2.50;;;22.60;52.30;;;;;;4968751;29;20409;-91
2022/03/23 12:01:19;;;;;;;3.43;3.13;;;22.60;52.30;;;;;;4951420;29;20469;-91
2022/03/23 12:03:47;;;;;;;3.20;2.90;;;22.50;52.20;;;;;;4970157;28;20413;-90
2022/03/23 12:06:14;;;;;;;4.20;3.60;;;22.60;52.30;;;;;;4987526;28;20401;-91
2022/03/23 12:08:51;;;;;;;3.13;2.93;;;22.60;52.30;;;;;;4987708;28;20401;-91
2022/03/23 12:11:38;;;;;;;3.47;3.00;;;22.60;52.30;;;;;;4972161;28;20942;-91
2022/03/23 12:14:07;;;;;;;3.10;2.80;;;22.60;52.30;;;;;;4988921;28;20460;-90
2022/03/23 12:17:02;;;;;;;3.50;3.03;;;22.60;52.40;;;;;;4971570;28;20787;-90
2022/03/23 12:19:31;;;;;;;3.57;2.73;;;22.60;52.40;;;;;;4985282;28;20485;-90
2022/03/23 12:22:06;;;;;;;3.40;3.07;;;22.60;52.40;;;;;;4988552;28;20420;-91
2022/03/23 12:25:19;;;;;;;3.23;2.87;;;22.60;52.40;;;;;;4988855;28;20409;-90
2022/03/23 12:28:35;;;;;;;3.33;2.70;;;22.60;52.40;;;;;;4988971;28;20468;-90
2022/03/23 12:31:10;;;;;;;3.93;3.50;;;22.60;52.40;;;;;;4971659;28;20429;-90
2022/03/23 12:33:57;;;;;;;3.57;3.27;;;22.50;52.40;;;;;;4988738;28;20380;-90
2022/03/23 12:39:24;;;;;;;3.87;3.17;;;22.50;52.40;;;;;;4969090;29;20414;-90
2022/03/23 12:41:49;;;;;;;2.60;2.40;;;22.50;52.40;;;;;;4952233;29;20418;-89
2022/03/23 12:44:37;;;;;;;3.47;3.10;;;22.50;52.40;;;;;;4969039;29;20410;-94
2022/03/23 12:47:06;;;;;;;3.30;3.00;;;22.60;52.40;;;;;;4979434;28;20244;-90
2022/03/23 12:58:34;;;;;;;3.27;2.93;;;22.50;52.40;;;;;;4987263;28;20425;-91
2022/03/23 13:01:18;;;;;;;3.43;3.13;;;22.50;52.30;;;;;;4987254;28;20485;-91
2022/03/23 13:03:44;;;;;;;3.47;3.17;;;22.50;52.30;;;;;;4987687;28;20425;-90
2022/03/23 13:06:12;;;;;;;3.90;3.43;;;22.50;52.30;;;;;;4970226;28;20424;-90
2022/03/23 13:08:47;;;;;;;3.30;3.00;;;22.50;52.30;;;;;;4987574;28;20169;-90
2022/03/23 13:11:16;;;;;;;3.80;3.03;;;22.50;52.20;;;;;;4953742;28;20409;-90
2022/03/23 13:13:46;;;;;;;3.20;2.90;;;22.50;52.20;;;;;;4970031;28;20445;-90
2022/03/23 13:16:18;;;;;;;3.73;3.40;;;22.60;52.30;;;;;;4969174;28;20421;-91
2022/03/23 13:18:44;;;;;;;4.23;3.27;;;22.50;52.20;;;;;;4969607;28;20437;-91
2022/03/23 13:21:21;;;;;;;4.00;3.13;;;22.60;52.20;;;;;;4969713;28;20428;-90
2022/03/23 13:23:51;;;;;;;3.70;3.13;;;22.60;52.10;;;;;;4987293;28;20386;-91
2022/03/23 13:26:25;;;;;;;4.63;3.97;;;22.60;52.10;;;;;;4969091;28;20421;-90
2022/03/23 13:29:06;;;;;;;4.50;3.20;;;22.60;52.10;;;;;;4969549;28;20409;-91
2022/03/23 13:31:36;;;;;;;4.00;3.57;;;22.50;52.00;;;;;;4969854;28;20529;-90
2022/03/23 13:34:05;;;;;;;3.57;3.20;;;22.50;51.90;;;;;;4969803;28;20417;-90
2022/03/23 13:36:35;;;;;;;3.10;2.90;;;22.50;51.90;;;;;;4969581;28;20413;-90
2022/03/23 13:39:13;;;;;;;3.53;2.83;;;22.50;52.00;;;;;;4986492;28;20409;-90
2022/03/23 13:47:32;;;;;;;3.53;3.20;;;22.50;51.90;;;;;;4966999;28;20409;-90
2022/03/23 13:49:59;;;;;;;3.50;3.20;;;22.50;51.80;;;;;;4969987;29;20421;-90
2022/03/23 13:52:26;;;;;;;3.60;3.30;;;22.50;51.80;;;;;;4971706;29;20457;-90
2022/03/23 13:54:58;;;;;;;3.77;3.43;;;22.50;51.80;;;;;;4989490;28;20899;-90
2022/03/23 13:57:25;;;;;;;3.83;3.40;;;22.50;51.80;;;;;;4990942;28;20409;-92
2022/03/23 13:59:51;;;;;;;3.83;3.40;;;22.50;51.80;;;;;;4973695;28;20500;-90
2022/03/23 14:02:24;;;;;;;6.03;3.13;;;22.50;51.80;;;;;;4990337;28;20412;-90
2022/03/23 14:04:50;;;;;;;4.13;3.40;;;22.50;51.70;;;;;;4990233;28;20405;-90
2022/03/23 14:07:16;;;;;;;4.90;3.47;;;22.50;51.70;;;;;;4973690;28;20432;-91
2022/03/23 14:09:41;;;;;;;5.17;4.43;;;22.50;51.80;;;;;;4991503;28;20200;-91
2022/03/23 14:12:10;;;;;;;4.27;3.43;;;22.50;51.80;;;;;;4973934;28;20469;-90
2022/03/23 14:14:39;;;;;;;4.07;3.77;;;22.50;51.80;;;;;;4989849;28;20173;-91
2022/03/23 14:17:23;;;;;;;5.20;3.97;;;22.50;51.90;;;;;;4973178;28;20417;-91
2022/03/23 14:19:51;;;;;;;3.63;3.33;;;22.50;51.90;;;;;;4989532;28;20453;-91
2022/03/23 14:22:28;;;;;;;4.00;3.47;;;22.60;52.10;;;;;;4974141;28;20420;-91
2022/03/23 14:24:58;;;;;;;6.00;4.60;;;22.60;52.10;;;;;;4975838;28;20439;-91
2022/03/23 14:27:33;;;;;;;3.97;3.60;;;22.60;52.40;;;;;;4974023;28;20424;-90
2022/03/23 14:30:09;;;;;;;3.80;3.50;;;22.60;52.10;;;;;;4992124;28;20412;-90
2022/03/23 14:32:43;;;;;;;3.93;3.30;;;22.60;52.10;;;;;;4991293;28;20440;-90
2022/03/23 14:35:19;;;;;;;3.93;3.33;;;22.60;52.00;;;;;;4976843;28;20516;-91
2022/03/23 14:37:47;;;;;;;4.57;4.13;;;22.60;52.00;;;;;;4974678;28;20443;-92
2022/03/23 14:40:22;;;;;;;3.87;3.57;;;22.70;52.10;;;;;;4992240;28;20409;-92
2022/03/23 14:42:48;;;;;;;4.20;3.80;;;22.70;52.00;;;;;;4991888;28;20421;-92
2022/03/23 14:45:32;;;;;;;4.80;3.70;;;22.70;52.00;;;;;;4992567;28;20433;-92
2022/03/23 14:48:12;;;;;;;4.10;3.37;;;22.70;51.90;;;;;;4990586;28;20495;-91
2022/03/23 14:50:38;;;;;;;5.10;4.10;;;22.70;51.90;;;;;;4972923;28;20413;-91
2022/03/23 14:53:09;;;;;;;3.67;3.37;;;22.70;51.90;;;;;;4972414;28;20524;-90
2022/03/23 14:55:41;;;;;;;5.57;3.97;;;22.70;51.80;;;;;;4972407;28;20201;-93
2022/03/23 15:01:31;;;;;;;3.97;3.50;;;22.70;51.80;;;;;;4991277;28;20432;-91
2022/03/23 15:04:00;;;;;;;4.17;3.67;;;22.70;51.80;;;;;;4973139;28;20417;-91
2022/03/23 15:14:43;;;;;;;4.37;3.20;;;22.70;51.80;;;;;;4991570;28;20790;-90
2022/03/23 15:17:09;;;;;;;4.30;3.87;;;22.70;51.80;;;;;;4973476;28;20417;-90
2022/03/23 15:19:35;;;;;;;4.80;3.77;;;22.70;51.80;;;;;;4991256;28;20433;-91
2022/03/23 15:22:03;;;;;;;4.10;3.57;;;22.70;51.70;;;;;;4971760;28;20440;-90
2022/03/23 15:24:30;;;;;;;5.00;3.80;;;22.70;51.70;;;;;;4989518;28;20205;-89
2022/03/23 15:26:56;;;;;;;4.00;3.60;;;22.70;51.70;;;;;;4988369;28;20429;-90
2022/03/23 15:29:22;;;;;;;3.60;3.30;;;22.80;51.70;;;;;;4986277;28;20428;-90
2022/03/23 15:31:48;;;;;;;3.40;3.10;;;22.80;51.70;;;;;;4986701;28;20461;-90
2022/03/23 15:34:18;;;;;;;4.13;3.73;;;22.80;51.70;;;;;;4969576;28;20425;-90
2022/03/23 15:36:48;;;;;;;3.00;2.70;;;22.80;51.70;;;;;;4969218;28;20205;-91
2022/03/23 15:39:14;;;;;;;5.10;3.60;;;22.80;51.60;;;;;;4985695;28;20421;-91
2022/03/23 15:41:41;;;;;;;3.90;3.50;;;22.80;51.60;;;;;;4970037;28;20476;-91
2022/03/23 15:44:10;;;;;;;4.00;3.60;;;22.80;52.20;;;;;;4970845;28;20186;-90
2022/03/23 15:46:37;;;;;;;4.77;4.13;;;22.80;51.60;;;;;;4987566;28;20417;-90
2022/03/23 15:49:08;;;;;;;4.33;3.83;;;22.80;51.60;;;;;;4986987;28;20417;-89
2022/03/23 15:51:34;;;;;;;4.73;3.50;;;22.80;51.60;;;;;;4988528;28;20480;-90
2022/03/23 15:54:01;;;;;;;5.60;3.37;;;22.80;51.60;;;;;;4973848;28;20421;-90
2022/03/23 15:56:27;;;;;;;3.90;3.60;;;22.80;51.60;;;;;;4991821;28;20413;-90
2022/03/23 15:58:53;;;;;;;3.93;3.53;;;22.80;51.50;;;;;;4972981;28;20473;-90
2022/03/23 16:04:43;;;;;;;3.90;3.47;;;22.80;51.50;;;;;;4986886;28;20161;-92
2022/03/23 16:07:09;;;;;;;4.00;3.60;;;22.80;51.50;;;;;;4987515;28;20405;-91
2022/03/23 16:09:47;;;;;;;4.77;4.30;;;22.80;52.10;;;;;;4970541;28;20424;-92
2022/03/23 16:12:39;;;;;;;4.00;3.60;;;22.80;51.50;;;;;;4973045;28;20452;-90